createdAt,value
2018-04-18T00:01:16.667Z,13.20
2018-04-18T00:03:44.955Z,13.20
2018-04-18T00:06:12.544Z,13.10
2018-04-18T00:08:40.033Z,13.10
2018-04-18T00:11:07.561Z,13.10
2018-04-18T00:13:35.063Z,13.10
2018-04-18T00:16:02.569Z,13.10
2018-04-18T00:18:30.105Z,13.00
2018-04-18T00:20:58.402Z,13.00
2018-04-18T00:23:25.919Z,13.00
2018-04-18T00:25:53.417Z,13.00
2018-04-18T00:28:20.942Z,13.00
2018-04-18T00:30:48.445Z,12.90
2018-04-18T00:33:15.979Z,12.90
2018-04-18T00:35:43.484Z,12.90
2018-04-18T00:38:11.841Z,12.90
2018-04-18T00:40:39.382Z,12.80
2018-04-18T00:43:06.883Z,12.80
2018-04-18T00:45:34.416Z,12.80
2018-04-18T00:48:01.965Z,12.90
2018-04-18T00:50:29.463Z,12.80
2018-04-18T00:52:56.972Z,12.80
2018-04-18T00:55:24.529Z,12.80
2018-04-18T00:57:52.034Z,12.80
2018-04-18T01:00:19.594Z,12.70
2018-04-18T01:02:47.098Z,12.70
2018-04-18T01:05:15.381Z,12.60
2018-04-18T01:07:42.902Z,12.60
2018-04-18T01:10:10.417Z,12.60
2018-04-18T01:12:37.939Z,12.50
2018-04-18T01:15:05.431Z,12.40
2018-04-18T01:17:32.966Z,12.40
2018-04-18T01:20:01.237Z,12.30
2018-04-18T01:22:29.534Z,12.40
2018-04-18T01:24:57.061Z,12.30
2018-04-18T01:27:25.357Z,12.30
2018-04-18T01:29:53.628Z,12.30
2018-04-18T01:32:21.937Z,12.20
2018-04-18T01:34:49.464Z,12.20
2018-04-18T01:37:16.982Z,12.20
2018-04-18T01:39:44.509Z,12.20
2018-04-18T01:42:12.029Z,12.20
2018-04-18T01:44:40.326Z,12.20
2018-04-18T01:47:08.585Z,12.10
2018-04-18T01:49:36.886Z,12.10
2018-04-18T01:52:04.393Z,12.10
2018-04-18T01:54:31.917Z,12.00
2018-04-18T01:56:59.456Z,12.00
2018-04-18T01:59:26.974Z,11.90
2018-04-18T02:01:54.474Z,11.90
2018-04-18T02:04:22.013Z,11.90
2018-04-18T02:06:50.289Z,11.90
2018-04-18T02:09:18.595Z,11.90
2018-04-18T02:11:46.136Z,11.90
2018-04-18T02:14:13.673Z,11.80
2018-04-18T02:16:41.185Z,11.80
2018-04-18T02:19:08.684Z,11.70
2018-04-18T02:21:36.216Z,11.70
2018-04-18T02:24:03.753Z,11.70
2018-04-18T02:26:31.265Z,11.70
2018-04-18T02:28:58.788Z,11.70
2018-04-18T02:31:26.332Z,11.60
2018-04-18T02:33:53.869Z,11.60
2018-04-18T02:36:21.386Z,11.60
2018-04-18T02:38:48.912Z,11.50
2018-04-18T02:41:17.217Z,11.50
2018-04-18T02:43:44.732Z,11.50
2018-04-18T02:46:12.269Z,11.50
2018-04-18T02:48:39.798Z,11.50
2018-04-18T02:51:07.339Z,11.40
2018-04-18T02:53:34.854Z,11.40
2018-04-18T02:56:02.380Z,11.30
2018-04-18T02:58:29.924Z,11.40
2018-04-18T03:00:57.429Z,11.30
2018-04-18T03:03:25.707Z,11.30
2018-04-18T03:05:54.029Z,11.20
2018-04-18T03:08:21.530Z,11.20
2018-04-18T03:10:49.819Z,11.20
2018-04-18T03:13:17.346Z,11.20
2018-04-18T03:15:44.844Z,11.20
2018-04-18T03:18:12.353Z,11.10
2018-04-18T03:20:39.890Z,11.10
2018-04-18T03:23:07.406Z,11.10
2018-04-18T03:25:35.711Z,11.10
2018-04-18T03:28:03.213Z,11.00
2018-04-18T03:30:30.712Z,11.00
2018-04-18T03:32:58.239Z,11.00
2018-04-18T03:35:25.784Z,11.00
2018-04-18T03:37:53.282Z,11.00
2018-04-18T03:40:21.556Z,10.90
2018-04-18T03:42:49.861Z,10.90
2018-04-18T03:45:17.360Z,10.90
2018-04-18T03:47:44.885Z,10.90
2018-04-18T03:50:12.397Z,10.60
2018-04-18T03:52:40.679Z,10.50
2018-04-18T03:55:08.950Z,10.50
2018-04-18T03:57:37.230Z,10.60
2018-04-18T04:00:05.526Z,10.60
2018-04-18T04:02:33.085Z,10.60
2018-04-18T04:05:00.558Z,10.60
2018-04-18T04:07:28.072Z,10.60
2018-04-18T04:09:55.592Z,10.60
2018-04-18T04:12:23.098Z,10.60
2018-04-18T04:14:50.591Z,10.60
2018-04-18T04:17:29.857Z,10.60
2018-04-18T04:20:09.113Z,10.60
2018-04-18T04:22:48.262Z,10.60
2018-04-18T04:25:15.792Z,10.60
2018-04-18T04:27:43.295Z,10.60
2018-04-18T04:30:10.852Z,10.60
2018-04-18T04:32:38.353Z,10.60
2018-04-18T04:35:05.858Z,10.60
2018-04-18T04:37:33.393Z,10.60
2018-04-18T04:40:00.914Z,10.60
2018-04-18T04:42:28.459Z,10.60
2018-04-18T04:44:55.993Z,10.60
2018-04-18T04:47:23.533Z,10.50
2018-04-18T04:49:51.837Z,10.50
2018-04-18T04:52:19.357Z,10.50
2018-04-18T04:54:46.905Z,10.50
2018-04-18T04:57:14.437Z,10.60
2018-04-18T04:59:41.935Z,10.60
2018-04-18T05:02:09.459Z,10.60
2018-04-18T05:04:36.993Z,10.60
2018-04-18T05:07:04.527Z,10.60
2018-04-18T05:09:32.035Z,10.60
2018-04-18T05:11:59.572Z,10.70
2018-04-18T05:14:27.082Z,10.60
2018-04-18T05:16:54.631Z,10.60
2018-04-18T05:19:22.142Z,10.60
2018-04-18T05:21:49.693Z,10.60
2018-04-18T05:24:17.240Z,10.70
2018-04-18T05:26:44.777Z,10.80
2018-04-18T05:29:12.292Z,10.80
2018-04-18T05:31:39.863Z,10.90
2018-04-18T05:34:07.371Z,11.00
2018-04-18T05:36:34.908Z,10.90
2018-04-18T05:39:02.451Z,11.00
2018-04-18T05:41:30.202Z,11.10
2018-04-18T05:43:57.725Z,11.20
2018-04-18T05:46:26.018Z,11.30
2018-04-18T05:48:54.314Z,11.30
2018-04-18T05:51:21.846Z,11.30
2018-04-18T05:53:49.368Z,11.40
2018-04-18T05:56:16.875Z,11.60
2018-04-18T05:58:44.398Z,11.70
2018-04-18T06:01:12.681Z,12.00
2018-04-18T06:03:40.985Z,12.20
2018-04-18T06:06:08.538Z,12.20
2018-04-18T06:08:36.053Z,12.30
2018-04-18T06:11:03.574Z,12.30
2018-04-18T06:13:31.136Z,12.40
2018-04-18T06:15:58.683Z,12.60
2018-04-18T06:18:26.999Z,12.80
2018-04-18T06:20:54.499Z,12.70
2018-04-18T06:23:22.041Z,12.70
2018-04-18T06:25:50.359Z,12.70
2018-04-18T06:28:17.861Z,12.70
2018-04-18T06:30:45.381Z,12.90
2018-04-18T06:33:12.896Z,12.90
2018-04-18T06:35:41.178Z,12.80
2018-04-18T06:38:09.457Z,12.90
2018-04-18T06:40:37.996Z,13.10
2018-04-18T06:43:05.498Z,13.10
2018-04-18T06:45:33.017Z,13.20
2018-04-18T06:48:00.586Z,13.30
2018-04-18T06:50:28.109Z,13.40
2018-04-18T06:52:55.614Z,13.40
2018-04-18T06:55:23.913Z,13.60
2018-04-18T06:57:51.441Z,13.60
2018-04-18T07:00:18.957Z,13.80
2018-04-18T07:02:46.552Z,13.80
2018-04-18T07:05:14.087Z,13.90
2018-04-18T07:07:41.681Z,14.00
2018-04-18T07:10:09.197Z,14.00
2018-04-18T07:12:36.757Z,14.10
2018-04-18T07:15:04.304Z,14.30
2018-04-18T07:17:31.858Z,14.40
2018-04-18T07:19:59.377Z,14.50
2018-04-18T07:22:26.901Z,14.60
2018-04-18T07:24:54.445Z,14.70
2018-04-18T07:27:21.949Z,14.80
2018-04-18T07:29:49.463Z,15.00
2018-04-18T07:32:17.013Z,15.10
2018-04-18T07:34:44.575Z,15.20
2018-04-18T07:37:12.131Z,15.30
2018-04-18T07:39:39.669Z,15.40
2018-04-18T07:42:07.978Z,15.70
2018-04-18T07:44:35.576Z,15.70
2018-04-18T07:47:03.134Z,16.00
2018-04-18T07:49:30.681Z,16.10
2018-04-18T07:51:58.198Z,16.20
2018-04-18T07:54:25.704Z,16.30
2018-04-18T07:56:53.266Z,16.40
2018-04-18T07:59:20.783Z,16.50
2018-04-18T08:01:48.338Z,16.60
2018-04-18T08:04:15.851Z,16.80
2018-04-18T08:06:43.408Z,16.90
2018-04-18T08:09:10.971Z,17.00
2018-04-18T08:11:38.500Z,17.10
2018-04-18T08:14:06.051Z,17.40
2018-04-18T08:16:33.600Z,17.70
2018-04-18T08:19:01.140Z,17.80
2018-04-18T08:21:29.449Z,18.40
2018-04-18T08:23:57.723Z,18.30
2018-04-18T08:26:25.249Z,18.30
2018-04-18T08:28:53.549Z,18.20
2018-04-18T08:31:21.089Z,18.20
2018-04-18T08:33:49.401Z,18.10
2018-04-18T08:36:16.922Z,18.20
2018-04-18T08:38:44.497Z,18.20
2018-04-18T08:41:12.029Z,18.20
2018-04-18T08:43:39.558Z,18.30
2018-04-18T08:46:07.093Z,18.30
2018-04-18T08:48:34.610Z,18.50
2018-04-18T08:51:02.896Z,18.70
2018-04-18T08:53:31.186Z,18.70
2018-04-18T08:55:58.706Z,18.70
2018-04-18T08:58:26.251Z,18.80
2018-04-18T09:00:53.820Z,19.10
2018-04-18T09:03:21.324Z,19.20
2018-04-18T09:05:48.853Z,19.10
2018-04-18T09:08:16.586Z,19.30
2018-04-18T09:10:44.136Z,19.50
2018-04-18T09:13:11.658Z,19.60
2018-04-18T09:15:39.207Z,19.60
2018-04-18T09:18:06.705Z,19.60
2018-04-18T09:20:34.225Z,19.90
2018-04-18T09:23:01.755Z,20.00
2018-04-18T09:25:29.288Z,20.20
2018-04-18T09:27:56.817Z,20.50
2018-04-18T09:30:24.349Z,20.60
2018-04-18T09:32:52.669Z,21.00
2018-04-18T09:35:20.179Z,21.00
2018-04-18T09:37:48.508Z,21.30
2018-04-18T09:40:16.018Z,21.30
2018-04-18T09:42:44.311Z,21.50
2018-04-18T09:45:12.606Z,21.60
2018-04-18T09:47:40.109Z,21.60
2018-04-18T09:50:07.703Z,21.70
2018-04-18T09:52:35.246Z,21.80
2018-04-18T09:55:03.551Z,21.90
2018-04-18T09:57:31.070Z,21.90
2018-04-18T09:59:58.590Z,21.90
2018-04-18T10:02:29.027Z,22.00
2018-04-18T10:04:56.541Z,22.30
2018-04-18T10:07:24.866Z,22.80
2018-04-18T10:09:52.431Z,22.80
2018-04-18T10:12:19.962Z,22.80
2018-04-18T10:14:47.493Z,23.10
2018-04-18T10:17:15.778Z,23.20
2018-04-18T10:19:44.116Z,23.30
2018-04-18T10:22:11.671Z,23.30
2018-04-18T10:24:39.209Z,23.40
2018-04-18T10:27:06.733Z,23.30
2018-04-18T10:29:35.013Z,24.10
2018-04-18T10:32:02.568Z,24.00
2018-04-18T10:34:30.868Z,24.00
2018-04-18T10:36:58.600Z,24.00
2018-04-18T10:39:26.894Z,25.10
2018-04-18T10:41:54.406Z,25.10
2018-04-18T10:44:21.977Z,25.80
2018-04-18T10:46:49.537Z,25.90
2018-04-18T10:49:17.041Z,26.30
2018-04-18T10:51:44.569Z,26.90
2018-04-18T10:54:12.870Z,27.40
2018-04-18T10:56:40.431Z,27.40
2018-04-18T10:59:07.939Z,27.70
2018-04-18T11:01:35.523Z,27.80
2018-04-18T11:04:03.789Z,28.20
2018-04-18T11:06:31.321Z,28.10
2018-04-18T11:08:58.832Z,28.60
2018-04-18T11:11:26.359Z,28.80
2018-04-18T11:13:53.906Z,28.50
2018-04-18T11:16:21.441Z,28.50
2018-04-18T11:18:48.967Z,28.30
2018-04-18T11:21:17.261Z,28.60
2018-04-18T11:23:44.801Z,28.60
2018-04-18T11:26:12.314Z,28.80
2018-04-18T11:28:39.836Z,29.00
2018-04-18T11:31:07.352Z,28.90
2018-04-18T11:33:34.901Z,28.20
2018-04-18T11:36:02.414Z,28.80
2018-04-18T11:38:29.929Z,28.90
2018-04-18T11:40:57.473Z,29.20
2018-04-18T11:43:24.969Z,29.40
2018-04-18T11:45:52.510Z,29.50
2018-04-18T11:48:20.797Z,29.50
2018-04-18T11:50:49.105Z,29.50
2018-04-18T11:53:16.605Z,29.40
2018-04-18T11:55:44.125Z,28.90
2018-04-18T11:58:12.389Z,29.20
2018-04-18T12:00:39.913Z,29.20
2018-04-18T12:03:08.203Z,29.60
2018-04-18T12:05:36.478Z,29.60
2018-04-18T12:08:04.778Z,29.70
2018-04-18T12:10:32.291Z,29.70
2018-04-18T12:12:59.802Z,29.90
2018-04-18T12:15:28.286Z,29.50
2018-04-18T12:17:55.819Z,29.60
2018-04-18T12:20:23.329Z,29.60
2018-04-18T12:22:50.831Z,29.50
2018-04-18T12:25:19.113Z,29.60
2018-04-18T12:27:46.632Z,29.60
2018-04-18T12:30:14.141Z,29.80
2018-04-18T12:32:41.666Z,29.60
2018-04-18T12:35:09.153Z,29.40
2018-04-18T12:37:36.689Z,29.80
2018-04-18T12:40:04.962Z,29.60
2018-04-18T12:42:33.279Z,29.90
2018-04-18T12:45:00.809Z,29.80
2018-04-18T12:47:29.120Z,30.00
2018-04-18T12:49:56.649Z,29.90
2018-04-18T12:52:24.943Z,30.20
2018-04-18T12:54:52.491Z,30.20
2018-04-18T12:57:19.994Z,30.20
2018-04-18T12:59:47.505Z,30.50
2018-04-18T13:02:15.025Z,29.80
2018-04-18T13:04:42.593Z,30.00
2018-04-18T13:07:10.889Z,29.80
2018-04-18T13:09:39.166Z,29.60
2018-04-18T13:12:07.478Z,29.90
2018-04-18T13:14:35.002Z,29.90
2018-04-18T13:17:03.281Z,29.70
2018-04-18T13:19:31.577Z,30.30
2018-04-18T13:21:59.125Z,30.30
2018-04-18T13:24:26.642Z,30.90
2018-04-18T13:26:54.163Z,30.50
2018-04-18T13:29:21.681Z,30.50
2018-04-18T13:31:49.946Z,29.90
2018-04-18T13:34:17.472Z,29.90
2018-04-18T13:36:44.989Z,30.30
2018-04-18T13:39:12.503Z,30.80
2018-04-18T13:41:40.043Z,31.00
2018-04-18T13:44:07.558Z,30.50
2018-04-18T13:46:35.844Z,31.30
2018-04-18T13:49:04.097Z,30.70
2018-04-18T13:51:31.638Z,30.70
2018-04-18T13:53:59.169Z,30.70
2018-04-18T13:56:26.727Z,31.10
2018-04-18T13:58:54.225Z,31.20
2018-04-18T14:01:21.773Z,31.10
2018-04-18T14:03:49.314Z,31.20
2018-04-18T14:06:16.870Z,31.30
2018-04-18T14:08:44.396Z,31.30
2018-04-18T14:11:11.909Z,31.40
2018-04-18T14:13:39.469Z,31.10
2018-04-18T14:16:06.969Z,31.10
2018-04-18T14:18:34.499Z,31.20
2018-04-18T14:21:02.769Z,31.20
2018-04-18T14:23:30.292Z,31.20
2018-04-18T14:25:58.629Z,31.60
2018-04-18T14:28:26.910Z,31.20
2018-04-18T14:30:55.240Z,31.60
2018-04-18T14:33:22.750Z,31.60
2018-04-18T14:35:51.053Z,31.80
2018-04-18T14:38:18.593Z,31.80
2018-04-18T14:40:46.115Z,31.80
2018-04-18T14:43:14.416Z,32.00
2018-04-18T14:45:42.690Z,31.70
2018-04-18T14:48:10.997Z,31.50
2018-04-18T14:50:38.543Z,31.40
2018-04-18T14:53:06.058Z,30.50
2018-04-18T14:55:33.560Z,30.90
2018-04-18T14:58:01.077Z,30.80
2018-04-18T15:00:28.582Z,31.30
2018-04-18T15:02:56.105Z,30.90
2018-04-18T15:05:24.363Z,31.90
2018-04-18T15:07:51.854Z,31.80
2018-04-18T15:10:20.171Z,31.60
2018-04-18T15:12:47.693Z,31.60
2018-04-18T15:15:15.236Z,31.60
2018-04-18T15:17:43.577Z,31.10
2018-04-18T15:20:11.151Z,31.10
2018-04-18T15:22:38.693Z,31.50
2018-04-18T15:25:06.978Z,31.30
2018-04-18T15:27:34.525Z,31.20
2018-04-18T15:30:02.083Z,31.80
2018-04-18T15:32:29.642Z,31.90
2018-04-18T15:34:57.188Z,31.70
2018-04-18T15:37:24.725Z,31.70
2018-04-18T15:39:52.249Z,31.50
2018-04-18T15:42:19.764Z,31.30
2018-04-18T15:44:47.301Z,30.90
2018-04-18T15:47:14.860Z,30.20
2018-04-18T15:49:43.117Z,29.80
2018-04-18T15:52:11.450Z,29.80
2018-04-18T15:54:38.968Z,29.80
2018-04-18T15:57:06.515Z,29.60
2018-04-18T15:59:34.814Z,29.40
2018-04-18T16:02:02.343Z,29.40
2018-04-18T16:04:29.869Z,29.10
2018-04-18T16:06:57.417Z,29.10
2018-04-18T16:09:24.956Z,29.20
2018-04-18T16:11:52.481Z,28.80
2018-04-18T16:14:20.807Z,29.00
2018-04-18T16:16:48.368Z,29.00
2018-04-18T16:19:15.889Z,29.10
2018-04-18T16:21:44.216Z,28.50
2018-04-18T16:24:11.730Z,28.50
2018-04-18T16:26:40.037Z,28.70
2018-04-18T16:29:19.610Z,28.70
2018-04-18T16:31:48.133Z,28.40
2018-04-18T16:34:15.677Z,28.40
2018-04-18T16:36:43.530Z,28.40
2018-04-18T16:39:11.504Z,28.40
2018-04-18T16:41:39.018Z,28.20
2018-04-18T16:44:06.544Z,28.00
2018-04-18T16:46:34.846Z,27.70
2018-04-18T16:49:02.677Z,27.60
2018-04-18T16:51:51.888Z,27.70
2018-04-18T16:54:19.636Z,27.60
2018-04-18T16:56:47.200Z,27.40
2018-04-18T16:59:14.708Z,27.60
2018-04-18T17:01:42.237Z,27.40
2018-04-18T17:04:09.778Z,27.40
2018-04-18T17:06:37.415Z,27.40
2018-04-18T17:09:05.726Z,27.00
2018-04-18T17:11:33.649Z,27.00
2018-04-18T17:14:01.945Z,26.60
2018-04-18T17:16:29.553Z,26.60
2018-04-18T17:18:57.123Z,26.40
2018-04-18T17:21:24.664Z,26.40
2018-04-18T17:23:52.187Z,26.50
2018-04-18T17:26:19.684Z,26.40
2018-04-18T17:28:47.230Z,26.40
2018-04-18T17:31:14.777Z,26.40
2018-04-18T17:33:42.265Z,26.20
2018-04-18T17:36:10.070Z,26.20
2018-04-18T17:38:37.758Z,26.20
2018-04-18T17:41:05.357Z,26.10
2018-04-18T17:43:32.893Z,26.00
2018-04-18T17:46:00.464Z,26.00
2018-04-18T17:48:28.022Z,25.90
2018-04-18T17:50:55.806Z,25.70
2018-04-18T17:53:23.822Z,25.60
2018-04-18T17:55:51.737Z,25.60
2018-04-18T17:58:19.393Z,25.40
2018-04-18T18:00:46.984Z,25.40
2018-04-18T18:03:15.385Z,25.20
2018-04-18T18:05:43.620Z,25.20
2018-04-18T18:08:11.545Z,25.10
2018-04-18T18:10:39.109Z,24.80
2018-04-18T18:13:06.641Z,24.70
2018-04-18T18:15:34.285Z,24.60
2018-04-18T18:18:01.905Z,24.50
2018-04-18T18:20:29.465Z,24.50
2018-04-18T18:22:57.190Z,24.30
2018-04-18T18:25:24.787Z,24.20
2018-04-18T18:27:52.302Z,24.00
2018-04-18T18:30:20.579Z,23.80
2018-04-18T18:32:48.958Z,23.60
2018-04-18T18:35:17.448Z,23.50
2018-04-18T18:37:44.996Z,23.50
2018-04-18T18:40:13.314Z,23.30
2018-04-18T18:42:40.877Z,23.30
2018-04-18T18:45:08.644Z,23.20
2018-04-18T18:47:36.315Z,23.20
2018-04-18T18:50:03.850Z,23.00
2018-04-18T18:52:31.437Z,22.90
2018-04-18T18:54:59.186Z,22.80
2018-04-18T18:57:26.925Z,22.80
2018-04-18T18:59:54.526Z,22.70
2018-04-18T19:02:21.996Z,22.60
2018-04-18T19:04:49.633Z,22.50
2018-04-18T19:07:17.370Z,22.50
2018-04-18T19:09:44.943Z,22.30
2018-04-18T19:12:12.461Z,22.20
2018-04-18T19:14:40.811Z,22.00
2018-04-18T19:17:08.618Z,22.00
2018-04-18T19:19:36.148Z,21.90
2018-04-18T19:22:04.503Z,21.70
2018-04-18T19:24:32.160Z,21.70
2018-04-18T19:26:59.805Z,21.70
2018-04-18T19:29:27.568Z,21.60
2018-04-18T19:31:55.090Z,21.50
2018-04-18T19:34:23.551Z,21.40
2018-04-18T19:36:51.068Z,21.40
2018-04-18T19:39:19.208Z,21.40
2018-04-18T19:41:46.863Z,21.30
2018-04-18T19:44:15.237Z,21.00
2018-04-18T19:46:42.741Z,21.00
2018-04-18T19:49:10.537Z,21.00
2018-04-18T19:51:38.602Z,20.90
2018-04-18T19:54:06.178Z,20.90
2018-04-18T19:56:33.733Z,20.70
2018-04-18T19:59:01.290Z,20.50
2018-04-18T20:01:29.540Z,20.40
2018-04-18T20:03:57.144Z,20.30
2018-04-18T20:06:24.699Z,20.20
2018-04-18T20:08:52.354Z,20.10
2018-04-18T20:11:20.135Z,19.90
2018-04-18T20:13:48.806Z,19.80
2018-04-18T20:16:16.418Z,19.70
2018-04-18T20:18:43.914Z,19.70
2018-04-18T20:21:11.449Z,19.50
2018-04-18T20:23:39.093Z,19.40
2018-04-18T20:26:06.597Z,19.20
2018-04-18T20:28:34.163Z,19.20
2018-04-18T20:31:02.437Z,19.20
2018-04-18T20:33:30.063Z,19.20
2018-04-18T20:35:57.666Z,19.10
2018-04-18T20:38:25.987Z,19.00
2018-04-18T20:40:53.518Z,19.00
2018-04-18T20:43:21.965Z,18.80
2018-04-18T20:45:49.623Z,18.80
2018-04-18T20:48:17.162Z,18.80
2018-04-18T20:50:44.701Z,18.80
2018-04-18T20:53:12.387Z,18.80
2018-04-18T20:55:40.017Z,18.70
2018-04-18T20:58:07.565Z,18.70
2018-04-18T21:00:35.086Z,18.70
2018-04-18T21:03:02.672Z,18.60
2018-04-18T21:05:31.049Z,18.50
2018-04-18T21:07:59.507Z,18.40
2018-04-18T21:10:27.045Z,18.40
2018-04-18T21:12:54.577Z,18.40
2018-04-18T21:15:22.148Z,18.30
2018-04-18T21:17:49.725Z,18.30
2018-04-18T21:20:17.258Z,18.20
2018-04-18T21:22:44.790Z,18.10
2018-04-18T21:25:13.097Z,18.00
2018-04-18T21:27:40.707Z,18.00
2018-04-18T21:30:08.229Z,17.90
2018-04-18T21:32:35.776Z,17.90
2018-04-18T21:35:03.316Z,17.80
2018-04-18T21:37:31.612Z,17.70
2018-04-18T21:39:59.150Z,17.60
2018-04-18T21:42:27.465Z,17.40
2018-04-18T21:44:54.966Z,17.40
2018-04-18T21:47:22.469Z,17.40
2018-04-18T21:49:50.014Z,17.30
2018-04-18T21:52:17.533Z,17.30
2018-04-18T21:54:45.062Z,17.20
2018-04-18T21:57:12.600Z,17.20
2018-04-18T21:59:40.115Z,17.10
2018-04-18T22:02:07.702Z,17.00
2018-04-18T22:04:35.960Z,16.80
2018-04-18T22:07:04.231Z,16.80
2018-04-18T22:09:31.762Z,16.70
2018-04-18T22:11:59.287Z,16.70
2018-04-18T22:14:26.818Z,16.70
2018-04-18T22:16:55.077Z,16.60
2018-04-18T22:19:22.608Z,16.50
2018-04-18T22:21:50.157Z,16.50
2018-04-18T22:24:17.673Z,16.40
2018-04-18T22:26:45.975Z,16.30
2018-04-18T22:29:13.517Z,16.30
2018-04-18T22:31:41.815Z,16.20
2018-04-18T22:34:09.345Z,16.20
2018-04-18T22:36:37.605Z,16.10
2018-04-18T22:39:05.109Z,16.10
2018-04-18T22:41:32.649Z,16.10
2018-04-18T22:44:00.157Z,16.00
2018-04-18T22:46:27.668Z,16.00
2018-04-18T22:48:55.188Z,15.90
2018-04-18T22:51:22.712Z,15.90
2018-04-18T22:53:50.212Z,15.90
2018-04-18T22:56:18.481Z,15.80
2018-04-18T22:58:46.011Z,15.80
2018-04-18T23:01:13.517Z,15.80
2018-04-18T23:03:41.813Z,15.80
2018-04-18T23:06:09.325Z,15.80
2018-04-18T23:08:36.872Z,15.70
2018-04-18T23:11:04.398Z,15.70
2018-04-18T23:13:31.945Z,15.60
2018-04-18T23:15:59.464Z,15.60
2018-04-18T23:18:26.955Z,15.60
2018-04-18T23:20:55.240Z,15.40
2018-04-18T23:23:22.744Z,15.40
2018-04-18T23:25:50.277Z,15.40
2018-04-18T23:28:17.773Z,15.30
2018-04-18T23:30:45.292Z,15.30
2018-04-18T23:33:12.794Z,15.30
2018-04-18T23:35:40.327Z,15.30
2018-04-18T23:38:07.890Z,15.20
2018-04-18T23:40:35.383Z,15.20
2018-04-18T23:43:02.869Z,15.10
2018-04-18T23:45:30.397Z,15.10
2018-04-18T23:47:57.937Z,15.10
2018-04-18T23:50:25.502Z,15.00
2018-04-18T23:52:53.016Z,15.00
2018-04-18T23:55:20.536Z,14.90
2018-04-18T23:57:48.821Z,14.90
